createdAt,value
2023-03-07T00:04:17.989Z,7.50
2023-03-07T00:09:19.883Z,7.50
2023-03-07T00:14:21.823Z,7.50
2023-03-07T00:19:23.727Z,7.50
2023-03-07T00:24:25.649Z,7.50
2023-03-07T00:29:27.462Z,7.40
2023-03-07T00:34:29.333Z,7.40
2023-03-07T00:39:31.160Z,7.40
2023-03-07T00:44:33.212Z,7.40
2023-03-07T00:49:35.222Z,7.50
2023-03-07T00:54:37.273Z,7.50
2023-03-07T00:59:39.072Z,7.40
2023-03-07T01:04:42.086Z,7.40
2023-03-07T01:09:44.015Z,7.40
2023-03-07T01:14:45.920Z,7.50
2023-03-07T01:19:47.878Z,7.50
2023-03-07T01:24:49.920Z,7.50
2023-03-07T01:29:51.734Z,7.50
2023-03-07T01:34:53.754Z,7.50
2023-03-07T01:39:55.716Z,7.50
2023-03-07T01:45:06.801Z,7.50
2023-03-07T01:50:18.749Z,7.50
2023-03-07T01:55:33.700Z,7.40
2023-03-07T02:00:45.045Z,7.40
2023-03-07T02:05:53.530Z,7.30
2023-03-07T02:10:55.537Z,7.30
2023-03-07T02:15:59.620Z,7.20
2023-03-07T02:21:59.872Z,7.20
2023-03-07T02:27:01.885Z,7.20
2023-03-07T02:32:04.262Z,7.20
2023-03-07T02:37:15.160Z,7.10
2023-03-07T02:42:29.393Z,7.10
2023-03-07T02:47:38.269Z,7.20
2023-03-07T02:52:41.219Z,7.20
2023-03-07T02:57:43.147Z,7.20
2023-03-07T03:02:44.980Z,7.20
2023-03-07T03:07:48.537Z,7.20
2023-03-07T03:12:50.504Z,7.20
2023-03-07T03:17:55.926Z,7.10
2023-03-07T03:22:59.192Z,7.10
2023-03-07T03:28:01.128Z,7.00
2023-03-07T03:33:04.352Z,7.00
2023-03-07T03:38:07.436Z,7.00
2023-03-07T03:43:09.338Z,6.90
2023-03-07T03:48:11.250Z,6.90
2023-03-07T03:53:13.136Z,6.90
2023-03-07T03:58:15.064Z,6.90
2023-03-07T04:03:16.874Z,6.90
2023-03-07T04:08:18.719Z,6.90
2023-03-07T04:13:20.620Z,6.80
2023-03-07T04:18:23.859Z,6.80
2023-03-07T04:23:26.075Z,6.80
2023-03-07T04:28:46.386Z,6.80
2023-03-07T04:33:54.382Z,6.70
2023-03-07T04:38:56.503Z,6.70
2023-03-07T04:43:58.428Z,6.80
2023-03-07T04:49:00.900Z,6.70
2023-03-07T04:54:02.992Z,6.70
2023-03-07T04:59:04.970Z,6.70
2023-03-07T05:04:06.985Z,6.80
2023-03-07T05:09:08.858Z,6.80
2023-03-07T05:14:11.286Z,6.70
2023-03-07T05:19:13.503Z,6.70
2023-03-07T05:24:15.993Z,6.80
2023-03-07T05:29:17.982Z,6.80
2023-03-07T05:34:19.951Z,6.80
2023-03-07T05:39:22.134Z,6.80
2023-03-07T05:44:24.175Z,6.90
2023-03-07T05:49:26.001Z,6.90
2023-03-07T05:54:28.631Z,6.90
2023-03-07T05:59:30.714Z,6.90
2023-03-07T06:04:32.665Z,7.00
2023-03-07T06:09:34.648Z,7.00
2023-03-07T06:14:37.152Z,7.10
2023-03-07T06:19:39.260Z,7.20
2023-03-07T06:24:41.296Z,7.20
2023-03-07T06:29:44.603Z,7.30
2023-03-07T06:34:46.595Z,7.20
2023-03-07T06:39:48.805Z,7.20
2023-03-07T06:44:51.439Z,7.30
2023-03-07T06:49:55.710Z,7.30
2023-03-07T06:54:57.705Z,7.30
2023-03-07T06:59:59.846Z,7.30
2023-03-07T07:05:04.996Z,7.30
2023-03-07T07:10:07.111Z,7.40
2023-03-07T07:15:09.970Z,7.40
2023-03-07T07:20:12.397Z,7.40
2023-03-07T07:25:16.310Z,7.40
2023-03-07T07:30:18.279Z,7.40
2023-03-07T07:35:20.333Z,7.40
2023-03-07T07:40:22.469Z,7.40
2023-03-07T07:45:25.005Z,7.40
2023-03-07T07:50:27.454Z,7.40
2023-03-07T07:55:30.290Z,7.50
2023-03-07T08:00:32.515Z,7.60
2023-03-07T08:05:34.422Z,7.60
2023-03-07T08:10:36.432Z,7.70
2023-03-07T08:15:38.712Z,7.80
2023-03-07T08:20:41.386Z,7.80
2023-03-07T08:25:43.299Z,7.80
2023-03-07T08:30:45.106Z,7.80
2023-03-07T08:35:46.988Z,7.90
2023-03-07T08:41:20.753Z,7.90
2023-03-07T08:46:23.716Z,8.00
2023-03-07T08:51:26.233Z,8.10
2023-03-07T08:56:28.658Z,8.10
2023-03-07T09:01:31.570Z,8.20
2023-03-07T09:06:33.990Z,8.30
2023-03-07T09:11:36.719Z,8.30
2023-03-07T09:16:39.341Z,8.30
2023-03-07T09:21:41.975Z,8.40
2023-03-07T09:26:44.478Z,8.60
2023-03-07T09:31:47.263Z,8.60
2023-03-07T09:36:52.401Z,8.70
2023-03-07T09:42:03.898Z,8.90
2023-03-07T09:47:25.712Z,8.90
2023-03-07T09:52:32.457Z,9.00
2023-03-07T09:57:50.441Z,9.00
2023-03-07T10:02:58.258Z,9.20
2023-03-07T10:08:02.004Z,9.40
2023-03-07T10:13:19.092Z,9.90
2023-03-07T10:18:26.557Z,10.10
2023-03-07T10:23:55.954Z,10.30
2023-03-07T10:29:11.153Z,10.50
2023-03-07T10:34:27.060Z,10.80
2023-03-07T10:39:37.898Z,11.00
2023-03-07T10:44:40.513Z,11.20
2023-03-07T10:49:48.829Z,11.30
2023-03-07T10:54:51.590Z,11.50
2023-03-07T11:00:12.708Z,11.70
2023-03-07T11:05:33.680Z,11.90
2023-03-07T11:10:39.489Z,12.20
2023-03-07T11:15:48.150Z,12.40
2023-03-07T11:20:57.653Z,12.50
2023-03-07T11:26:17.893Z,12.70
2023-03-07T11:31:45.940Z,12.70
2023-03-07T11:37:01.266Z,12.80
2023-03-07T11:42:16.323Z,13.00
2023-03-07T11:47:53.419Z,13.00
2023-03-07T11:53:26.485Z,13.10
2023-03-07T11:58:41.549Z,13.10
2023-03-07T12:04:40.741Z,13.20
2023-03-07T12:10:18.705Z,13.30
2023-03-07T12:15:40.286Z,13.50
2023-03-07T12:21:04.449Z,13.30
2023-03-07T12:26:28.789Z,13.30
2023-03-07T12:31:40.512Z,13.30
2023-03-07T12:37:01.814Z,13.30
2023-03-07T12:42:17.019Z,13.30
2023-03-07T12:47:40.307Z,13.40
2023-03-07T12:52:55.801Z,13.40
2023-03-07T12:58:16.847Z,13.40
2023-03-07T13:03:36.238Z,13.60
2023-03-07T13:08:41.450Z,13.60
2023-03-07T13:13:47.823Z,13.50
2023-03-07T13:19:01.153Z,13.60
2023-03-07T13:24:37.190Z,13.60
2023-03-07T13:30:11.033Z,13.80
2023-03-07T13:35:14.547Z,13.70
2023-03-07T13:40:27.181Z,13.90
2023-03-07T13:45:39.452Z,14.10
2023-03-07T13:50:57.480Z,14.20
2023-03-07T13:56:16.844Z,14.10
2023-03-07T14:01:47.303Z,14.10
2023-03-07T14:07:11.662Z,14.00
2023-03-07T14:12:27.133Z,14.00
2023-03-07T14:18:03.417Z,14.10
2023-03-07T14:23:38.533Z,14.10
2023-03-07T14:28:59.662Z,14.00
2023-03-07T14:34:48.236Z,13.80
2023-03-07T14:40:23.113Z,13.60
2023-03-07T14:45:56.612Z,13.50
2023-03-07T14:51:25.989Z,13.50
2023-03-07T14:56:32.649Z,13.50
2023-03-07T15:01:43.138Z,13.40
2023-03-07T15:06:46.681Z,13.40
2023-03-07T15:11:59.024Z,13.30
2023-03-07T15:17:05.078Z,13.20
2023-03-07T15:22:24.733Z,13.10
2023-03-07T15:27:31.208Z,13.00
2023-03-07T15:32:41.666Z,12.90
2023-03-07T15:37:57.971Z,12.70
2023-03-07T15:43:05.994Z,12.60
2023-03-07T15:48:17.466Z,12.30
2023-03-07T15:53:32.555Z,12.20
2023-03-07T15:58:37.436Z,12.00
2023-03-07T16:03:49.990Z,11.90
2023-03-07T16:08:52.405Z,11.80
2023-03-07T16:13:54.882Z,11.70
2023-03-07T16:18:58.392Z,11.60
2023-03-07T16:24:00.793Z,11.50
2023-03-07T16:29:06.589Z,11.50
2023-03-07T16:34:29.518Z,11.30
2023-03-07T16:39:32.426Z,11.20
2023-03-07T16:44:41.458Z,11.10
2023-03-07T16:49:51.046Z,11.00
2023-03-07T16:54:57.260Z,11.10
2023-03-07T17:00:00.988Z,11.10
2023-03-07T17:05:07.696Z,11.00
2023-03-07T17:10:12.368Z,11.00
2023-03-07T17:15:35.116Z,10.90
2023-03-07T17:20:39.113Z,11.00
2023-03-07T17:25:42.434Z,11.00
2023-03-07T17:30:46.385Z,10.90
2023-03-07T17:35:49.307Z,10.70
2023-03-07T17:41:02.922Z,10.60
2023-03-07T17:46:13.204Z,10.40
2023-03-07T17:51:46.661Z,10.30
2023-03-07T17:56:49.999Z,10.20
2023-03-07T18:01:53.269Z,10.10
2023-03-07T18:06:56.549Z,10.00
2023-03-07T18:12:01.789Z,9.90
2023-03-07T18:17:05.446Z,10.00
2023-03-07T18:22:08.470Z,10.00
2023-03-07T18:27:11.852Z,9.90
2023-03-07T18:32:14.978Z,9.90
2023-03-07T18:37:20.033Z,9.80
2023-03-07T18:42:26.276Z,9.80
2023-03-07T18:47:29.322Z,9.70
2023-03-07T18:52:32.153Z,9.60
2023-03-07T18:57:35.460Z,9.70
2023-03-07T19:02:39.754Z,9.50
2023-03-07T19:07:45.026Z,9.50
2023-03-07T19:12:48.341Z,9.50
2023-03-07T19:18:11.436Z,9.40
2023-03-07T19:23:18.125Z,9.30
2023-03-07T19:28:24.437Z,9.30
2023-03-07T19:33:28.851Z,9.30
2023-03-07T19:38:36.147Z,9.30
2023-03-07T19:43:39.380Z,9.20
2023-03-07T19:48:46.364Z,9.20
2023-03-07T19:53:52.125Z,9.00
2023-03-07T19:58:56.311Z,9.00
2023-03-07T20:04:07.162Z,9.00
2023-03-07T20:09:27.816Z,9.00
2023-03-07T20:14:31.815Z,9.00
2023-03-07T20:19:36.837Z,9.10
2023-03-07T20:24:42.308Z,9.10
2023-03-07T20:29:46.915Z,9.10
2023-03-07T20:34:59.396Z,9.00
2023-03-07T20:40:07.909Z,8.90
2023-03-07T20:45:13.777Z,8.80
2023-03-07T20:50:17.788Z,8.90
2023-03-07T20:55:20.915Z,8.90
2023-03-07T21:00:30.418Z,8.90
2023-03-07T21:05:35.113Z,8.80
2023-03-07T21:10:38.425Z,8.80
2023-03-07T21:15:57.463Z,8.80
2023-03-07T21:21:02.475Z,8.70
2023-03-07T21:26:42.053Z,8.60
2023-03-07T21:32:12.433Z,8.60
2023-03-07T21:37:19.809Z,8.60
2023-03-07T21:43:31.634Z,8.50
2023-03-07T21:48:39.591Z,8.50
2023-03-07T21:54:14.387Z,8.60
2023-03-07T21:59:30.194Z,8.60
2023-03-07T22:04:52.534Z,8.60
2023-03-07T22:10:35.212Z,8.60
2023-03-07T22:15:52.724Z,8.50
2023-03-07T22:21:28.053Z,8.50
2023-03-07T22:26:35.558Z,8.40
2023-03-07T22:32:02.262Z,8.50
2023-03-07T22:37:39.738Z,8.50
2023-03-07T22:43:40.365Z,8.40
2023-03-07T22:54:20.897Z,8.40
2023-03-07T22:59:26.804Z,8.40
2023-03-07T23:04:30.553Z,8.40
2023-03-07T23:09:32.765Z,8.40
2023-03-07T23:14:34.668Z,8.40
2023-03-07T23:19:36.541Z,8.30
2023-03-07T23:24:38.403Z,8.40
2023-03-07T23:29:40.230Z,8.40
2023-03-07T23:34:42.180Z,8.40
2023-03-07T23:39:44.193Z,8.50
2023-03-07T23:44:48.876Z,8.50
2023-03-07T23:49:50.776Z,8.50
2023-03-07T23:54:52.758Z,8.60
2023-03-07T23:59:54.666Z,8.60
